AQQ10 IFIS: Internet Flight Information System
logo dgac
Lunes 27 de Septiembre del 2021
Buscar por aerodromo o helipuerto
Ingrese nombre de aeródromo, localidad o designador OACI:
METAR del 27-09-2021 a las 01:00 UTC
Para mayor información visite www.meteochile.cl
METAR SCRG 270100Z NIL
METAR del 27-09-2021 a las 00:00 UTC
Para mayor información visite www.meteochile.cl
METAR SCRG 270000Z NIL
METAR del 26-09-2021 a las 23:00 UTC
Para mayor información visite www.meteochile.cl
METAR SCRG 262300Z 20007KT CAVOK 16/05 Q1017
Viento: dirección 200 grados, velocidad 7 nudos
Visibilidad: 10 km o más,
    sin nubes bajo los 5.000 pies o bajo del MSA (Mínimo de Seguridad del Aeródromo),
    sin cumulonimbus, y sin fenómenos de tiempo significativo en el aeródromo o alrededores
Temperatura: 16 °C
Rocío: 5 °C
Humedad_relativa: 48%
Presión: 1017 hPa
METAR del 26-09-2021 a las 22:00 UTC
Para mayor información visite www.meteochile.cl
METAR SCRG 262200Z 19006KT CAVOK 18/07 Q1017
Viento: dirección 190 grados, velocidad 6 nudos
Visibilidad: 10 km o más,
    sin nubes bajo los 5.000 pies o bajo del MSA (Mínimo de Seguridad del Aeródromo),
    sin cumulonimbus, y sin fenómenos de tiempo significativo en el aeródromo o alrededores
Temperatura: 18 °C
Rocío: 7 °C
Humedad_relativa: 49%
Presión: 1017 hPa
METAR del 26-09-2021 a las 21:00 UTC
Para mayor información visite www.meteochile.cl
METAR SCRG 262100Z 19008KT CAVOK 19/07 Q1017
Viento: dirección 190 grados, velocidad 8 nudos
Visibilidad: 10 km o más,
    sin nubes bajo los 5.000 pies o bajo del MSA (Mínimo de Seguridad del Aeródromo),
    sin cumulonimbus, y sin fenómenos de tiempo significativo en el aeródromo o alrededores
Temperatura: 19 °C
Rocío: 7 °C
Humedad_relativa: 46%
Presión: 1017 hPa
METAR del 26-09-2021 a las 20:00 UTC
Para mayor información visite www.meteochile.cl
METAR SCRG 262000Z 20010KT CAVOK 19/06 Q1017
Viento: dirección 200 grados, velocidad 10 nudos
Visibilidad: 10 km o más,
    sin nubes bajo los 5.000 pies o bajo del MSA (Mínimo de Seguridad del Aeródromo),
    sin cumulonimbus, y sin fenómenos de tiempo significativo en el aeródromo o alrededores
Temperatura: 19 °C
Rocío: 6 °C
Humedad_relativa: 43%
Presión: 1017 hPa
METAR del 26-09-2021 a las 19:00 UTC
Para mayor información visite www.meteochile.cl
METAR SCRG 261900Z 20012KT CAVOK 20/06 Q1016
Viento: dirección 200 grados, velocidad 12 nudos
Visibilidad: 10 km o más,
    sin nubes bajo los 5.000 pies o bajo del MSA (Mínimo de Seguridad del Aeródromo),
    sin cumulonimbus, y sin fenómenos de tiempo significativo en el aeródromo o alrededores
Temperatura: 20 °C
Rocío: 6 °C
Humedad_relativa: 40%
Presión: 1016 hPa
METAR del 26-09-2021 a las 18:00 UTC
Para mayor información visite www.meteochile.cl
METAR SCRG 261800Z 20009KT CAVOK 19/05 Q1017
Viento: dirección 200 grados, velocidad 9 nudos
Visibilidad: 10 km o más,
    sin nubes bajo los 5.000 pies o bajo del MSA (Mínimo de Seguridad del Aeródromo),
    sin cumulonimbus, y sin fenómenos de tiempo significativo en el aeródromo o alrededores
Temperatura: 19 °C
Rocío: 5 °C
Humedad_relativa: 40%
Presión: 1017 hPa
METAR del 26-09-2021 a las 17:00 UTC
Para mayor información visite www.meteochile.cl
METAR SCRG 261700Z 19010KT CAVOK 17/07 Q1017
Viento: dirección 190 grados, velocidad 10 nudos
Visibilidad: 10 km o más,
    sin nubes bajo los 5.000 pies o bajo del MSA (Mínimo de Seguridad del Aeródromo),
    sin cumulonimbus, y sin fenómenos de tiempo significativo en el aeródromo o alrededores
Temperatura: 17 °C
Rocío: 7 °C
Humedad_relativa: 52%
Presión: 1017 hPa
METAR del 26-09-2021 a las 16:00 UTC
Para mayor información visite www.meteochile.cl
METAR SCRG 261600Z 20009KT CAVOK 15/08 Q1017
Viento: dirección 200 grados, velocidad 9 nudos
Visibilidad: 10 km o más,
    sin nubes bajo los 5.000 pies o bajo del MSA (Mínimo de Seguridad del Aeródromo),
    sin cumulonimbus, y sin fenómenos de tiempo significativo en el aeródromo o alrededores
Temperatura: 15 °C
Rocío: 8 °C
Humedad_relativa: 63%
Presión: 1017 hPa